sensor_id;sensor_type;location;lat;lon;timestamp;pressure;altitude;pressure_sealevel;temperature;humidity
56604;BME280;42486;47.478;19.036;2023-07-16T06:44:45;100191.78;;;27.12;63.61
56604;BME280;42486;47.478;19.036;2023-07-16T06:47:55;100177.78;;;26.91;63.26
56604;BME280;42486;47.478;19.036;2023-07-16T06:51:02;100190.97;;;27.11;63.90
56604;BME280;42486;47.478;19.036;2023-07-16T06:54:16;100179.34;;;26.80;64.89
56604;BME280;42486;47.478;19.036;2023-07-16T06:57:20;100179.44;;;26.55;65.17
56604;BME280;42486;47.478;19.036;2023-07-16T07:00:23;100179.00;;;26.58;66.03
56604;BME280;42486;47.478;19.036;2023-07-16T07:03:25;100174.53;;;26.52;65.90
56604;BME280;42486;47.478;19.036;2023-07-16T07:06:34;100178.94;;;26.65;66.51
56604;BME280;42486;47.478;19.036;2023-07-16T07:09:36;100164.53;;;26.96;60.81
56604;BME280;42486;47.478;19.036;2023-07-16T07:12:39;100160.88;;;27.09;60.59
56604;BME280;42486;47.478;19.036;2023-07-16T07:15:49;100165.56;;;27.32;60.55
56604;BME280;42486;47.478;19.036;2023-07-16T07:18:54;100167.53;;;27.79;59.62
56604;BME280;42486;47.478;19.036;2023-07-16T07:22:02;100169.97;;;28.98;54.70
56604;BME280;42486;47.478;19.036;2023-07-16T07:25:07;100182.84;;;29.65;53.45
56604;BME280;42486;47.478;19.036;2023-07-16T07:28:10;100180.97;;;29.37;54.04
56604;BME280;42486;47.478;19.036;2023-07-16T07:31:12;100185.78;;;31.63;48.20
56604;BME280;42486;47.478;19.036;2023-07-16T07:34:18;100195.19;;;33.36;42.85
56604;BME280;42486;47.478;19.036;2023-07-16T07:37:24;100198.84;;;36.41;36.66
56604;BME280;42486;47.478;19.036;2023-07-16T07:40:26;100199.16;;;38.01;33.15
56604;BME280;42486;47.478;19.036;2023-07-16T07:43:29;100201.09;;;38.42;32.11
56604;BME280;42486;47.478;19.036;2023-07-16T07:46:39;100197.53;;;39.69;30.73
56604;BME280;42486;47.478;19.036;2023-07-16T07:49:42;100195.84;;;39.23;30.34
56604;BME280;42486;47.478;19.036;2023-07-16T07:52:45;100198.59;;;40.13;29.17
56604;BME280;42486;47.478;19.036;2023-07-16T07:55:55;100196.22;;;39.67;29.25
56604;BME280;42486;47.478;19.036;2023-07-16T07:59:00;100192.72;;;39.52;29.84
56604;BME280;42486;47.478;19.036;2023-07-16T08:02:06;100199.84;;;40.78;27.80
56604;BME280;42486;47.478;19.036;2023-07-16T08:05:09;100202.00;;;41.25;26.24
56604;BME280;42486;47.478;19.036;2023-07-16T08:08:11;100195.78;;;39.73;29.91
56604;BME280;42486;47.478;19.036;2023-07-16T08:11:14;100195.53;;;37.35;32.62
56604;BME280;42486;47.478;19.036;2023-07-16T08:14:17;100182.91;;;35.31;37.24
56604;BME280;42486;47.478;19.036;2023-07-16T08:17:19;100177.31;;;34.37;38.19
56604;BME280;42486;47.478;19.036;2023-07-16T08:20:26;100177.62;;;33.69;38.48
56604;BME280;42486;47.478;19.036;2023-07-16T08:23:32;100174.06;;;34.04;38.37
56604;BME280;42486;47.478;19.036;2023-07-16T08:26:38;100179.91;;;36.30;33.98
56604;BME280;42486;47.478;19.036;2023-07-16T08:29:42;100184.53;;;37.59;32.31
56604;BME280;42486;47.478;19.036;2023-07-16T08:32:46;100182.97;;;38.04;32.56
56604;BME280;42486;47.478;19.036;2023-07-16T08:35:50;100177.88;;;37.98;31.12
56604;BME280;42486;47.478;19.036;2023-07-16T08:38:53;100172.91;;;35.95;34.49
56604;BME280;42486;47.478;19.036;2023-07-16T08:42:01;100170.25;;;35.16;36.71
56604;BME280;42486;47.478;19.036;2023-07-16T08:45:06;100176.25;;;34.17;38.24
56604;BME280;42486;47.478;19.036;2023-07-16T08:48:13;100161.28;;;33.07;40.75
56604;BME280;42486;47.478;19.036;2023-07-16T08:51:17;100153.72;;;32.52;42.03
56604;BME280;42486;47.478;19.036;2023-07-16T08:54:21;100151.44;;;32.86;41.85
56604;BME280;42486;47.478;19.036;2023-07-16T08:57:29;100151.06;;;32.62;42.95
56604;BME280;42486;47.478;19.036;2023-07-16T09:00:34;100155.31;;;33.10;43.96
56604;BME280;42486;47.478;19.036;2023-07-16T09:03:37;100168.63;;;33.22;42.65
56604;BME280;42486;47.478;19.036;2023-07-16T09:06:39;100165.69;;;33.49;41.01
56604;BME280;42486;47.478;19.036;2023-07-16T09:09:54;100166.53;;;33.81;40.54
56604;BME280;42486;47.478;19.036;2023-07-16T09:12:57;100163.78;;;33.91;40.47
56604;BME280;42486;47.478;19.036;2023-07-16T09:16:02;100157.81;;;33.99;42.40
56604;BME280;42486;47.478;19.036;2023-07-16T09:19:11;100176.81;;;34.09;42.10
56604;BME280;42486;47.478;19.036;2023-07-16T09:22:17;100161.31;;;34.25;40.30
56604;BME280;42486;47.478;19.036;2023-07-16T09:25:27;100168.41;;;34.26;40.29
56604;BME280;42486;47.478;19.036;2023-07-16T09:28:32;100163.25;;;34.14;40.72
56604;BME280;42486;47.478;19.036;2023-07-16T09:31:36;100158.91;;;33.98;40.76
56604;BME280;42486;47.478;19.036;2023-07-16T09:34:38;100160.03;;;34.07;40.99
56604;BME280;42486;47.478;19.036;2023-07-16T09:37:46;100157.84;;;33.79;41.47
56604;BME280;42486;47.478;19.036;2023-07-16T09:40:51;100156.50;;;33.81;41.05
56604;BME280;42486;47.478;19.036;2023-07-16T09:43:54;100162.72;;;33.66;41.90
56604;BME280;42486;47.478;19.036;2023-07-16T09:46:57;100150.19;;;33.19;43.92
56604;BME280;42486;47.478;19.036;2023-07-16T09:49:59;100161.09;;;33.60;42.79
56604;BME280;42486;47.478;19.036;2023-07-16T09:53:04;100164.09;;;33.84;42.40
56604;BME280;42486;47.478;19.036;2023-07-16T09:56:10;100160.25;;;34.26;42.78
56604;BME280;42486;47.478;19.036;2023-07-16T09:59:19;100161.59;;;34.34;41.75
56604;BME280;42486;47.478;19.036;2023-07-16T10:02:23;100148.72;;;34.70;39.14
56604;BME280;42486;47.478;19.036;2023-07-16T10:05:28;100143.06;;;34.56;39.16
56604;BME280;42486;47.478;19.036;2023-07-16T10:08:33;100149.28;;;34.62;39.29
56604;BME280;42486;47.478;19.036;2023-07-16T10:11:36;100142.81;;;34.58;39.66
56604;BME280;42486;47.478;19.036;2023-07-16T10:14:40;100150.59;;;34.80;39.42
56604;BME280;42486;47.478;19.036;2023-07-16T10:17:49;100138.00;;;34.94;39.68
56604;BME280;42486;47.478;19.036;2023-07-16T10:20:53;100138.44;;;35.17;38.26
56604;BME280;42486;47.478;19.036;2023-07-16T10:23:59;100137.12;;;35.09;38.30
56604;BME280;42486;47.478;19.036;2023-07-16T10:27:03;100129.44;;;34.72;38.15
56604;BME280;42486;47.478;19.036;2023-07-16T10:30:08;100132.34;;;33.95;39.89
56604;BME280;42486;47.478;19.036;2023-07-16T10:33:13;100132.59;;;34.19;39.77
56604;BME280;42486;47.478;19.036;2023-07-16T10:36:17;100134.12;;;34.46;38.74
56604;BME280;42486;47.478;19.036;2023-07-16T10:39:21;100136.03;;;34.60;38.78
56604;BME280;42486;47.478;19.036;2023-07-16T10:42:27;100130.31;;;34.47;38.40
56604;BME280;42486;47.478;19.036;2023-07-16T10:45:30;100130.75;;;34.84;38.63
56604;BME280;42486;47.478;19.036;2023-07-16T10:48:33;100130.62;;;35.00;37.75
56604;BME280;42486;47.478;19.036;2023-07-16T10:51:36;100126.72;;;35.21;38.22
56604;BME280;42486;47.478;19.036;2023-07-16T10:54:39;100131.66;;;35.59;36.18
56604;BME280;42486;47.478;19.036;2023-07-16T10:57:46;100131.53;;;35.69;34.17
56604;BME280;42486;47.478;19.036;2023-07-16T11:00:50;100133.25;;;35.60;34.71
56604;BME280;42486;47.478;19.036;2023-07-16T11:03:59;100122.88;;;35.67;33.83
56604;BME280;42486;47.478;19.036;2023-07-16T11:07:08;100130.50;;;35.94;33.83
56604;BME280;42486;47.478;19.036;2023-07-16T11:10:11;100125.47;;;36.06;33.29
56604;BME280;42486;47.478;19.036;2023-07-16T11:13:13;100127.47;;;35.66;33.42
56604;BME280;42486;47.478;19.036;2023-07-16T11:16:18;100124.09;;;36.09;32.97
56604;BME280;42486;47.478;19.036;2023-07-16T11:19:21;100114.28;;;36.13;33.75
56604;BME280;42486;47.478;19.036;2023-07-16T11:22:26;100124.00;;;36.19;33.64
56604;BME280;42486;47.478;19.036;2023-07-16T11:25:30;100116.13;;;35.88;34.05
56604;BME280;42486;47.478;19.036;2023-07-16T11:28:39;100123.41;;;36.22;33.74
56604;BME280;42486;47.478;19.036;2023-07-16T11:31:43;100118.53;;;36.19;33.00
56604;BME280;42486;47.478;19.036;2023-07-16T11:34:55;100117.91;;;36.27;32.75
56604;BME280;42486;47.478;19.036;2023-07-16T11:37:58;100108.66;;;35.75;33.92
56604;BME280;42486;47.478;19.036;2023-07-16T11:41:01;100112.34;;;36.13;34.30
56604;BME280;42486;47.478;19.036;2023-07-16T11:44:08;100113.34;;;36.23;34.71
56604;BME280;42486;47.478;19.036;2023-07-16T11:47:12;100115.31;;;36.84;33.23
56604;BME280;42486;47.478;19.036;2023-07-16T11:50:16;100107.31;;;36.50;33.64
56604;BME280;42486;47.478;19.036;2023-07-16T11:53:18;100106.28;;;35.92;34.95
56604;BME280;42486;47.478;19.036;2023-07-16T11:56:20;100116.66;;;35.61;35.02
56604;BME280;42486;47.478;19.036;2023-07-16T11:59:24;100112.69;;;35.09;35.77
56604;BME280;42486;47.478;19.036;2023-07-16T12:02:28;100109.13;;;35.14;36.23
56604;BME280;42486;47.478;19.036;2023-07-16T12:05:33;100107.09;;;35.64;35.73
56604;BME280;42486;47.478;19.036;2023-07-16T12:08:54;100117.31;;;36.06;35.16
56604;BME280;42486;47.478;19.036;2023-07-16T12:11:57;100113.84;;;36.25;34.31
56604;BME280;42486;47.478;19.036;2023-07-16T12:15:00;100105.75;;;35.32;36.83
56604;BME280;42486;47.478;19.036;2023-07-16T12:18:03;100106.62;;;34.73;37.10
56604;BME280;42486;47.478;19.036;2023-07-16T12:21:06;100107.78;;;34.56;37.50
56604;BME280;42486;47.478;19.036;2023-07-16T12:24:08;100101.34;;;34.42;38.30
56604;BME280;42486;47.478;19.036;2023-07-16T12:27:14;100106.03;;;34.01;37.84
56604;BME280;42486;47.478;19.036;2023-07-16T12:30:20;100100.91;;;33.89;37.50
56604;BME280;42486;47.478;19.036;2023-07-16T12:33:22;100090.66;;;33.70;38.55
56604;BME280;42486;47.478;19.036;2023-07-16T12:36:25;100090.63;;;33.81;38.69
56604;BME280;42486;47.478;19.036;2023-07-16T12:39:28;100089.50;;;34.12;37.89
56604;BME280;42486;47.478;19.036;2023-07-16T12:42:33;100088.34;;;34.34;38.97
56604;BME280;42486;47.478;19.036;2023-07-16T12:45:35;100082.31;;;34.97;38.76
56604;BME280;42486;47.478;19.036;2023-07-16T12:48:38;100094.78;;;35.42;35.47
56604;BME280;42486;47.478;19.036;2023-07-16T12:51:43;100091.63;;;35.64;35.75
56604;BME280;42486;47.478;19.036;2023-07-16T12:54:48;100099.47;;;35.95;34.62
56604;BME280;42486;47.478;19.036;2023-07-16T12:57:53;100089.00;;;35.83;35.11
56604;BME280;42486;47.478;19.036;2023-07-16T13:00:57;100102.38;;;35.75;34.96
56604;BME280;42486;47.478;19.036;2023-07-16T13:04:02;100100.81;;;35.34;36.90
56604;BME280;42486;47.478;19.036;2023-07-16T13:07:05;100099.31;;;34.68;38.77
56604;BME280;42486;47.478;19.036;2023-07-16T13:10:07;100098.81;;;35.11;37.68
56604;BME280;42486;47.478;19.036;2023-07-16T13:13:25;100092.66;;;34.95;38.69
56604;BME280;42486;47.478;19.036;2023-07-16T13:16:27;100097.50;;;35.03;38.66
56604;BME280;42486;47.478;19.036;2023-07-16T13:19:29;100101.06;;;35.38;37.59
56604;BME280;42486;47.478;19.036;2023-07-16T13:22:32;100095.50;;;35.53;37.06
56604;BME280;42486;47.478;19.036;2023-07-16T13:25:41;100094.63;;;35.63;36.95
56604;BME280;42486;47.478;19.036;2023-07-16T13:28:44;100093.94;;;35.76;36.24
56604;BME280;42486;47.478;19.036;2023-07-16T13:31:49;100101.44;;;35.89;36.59
56604;BME280;42486;47.478;19.036;2023-07-16T13:34:54;100105.22;;;35.64;37.52
56604;BME280;42486;47.478;19.036;2023-07-16T13:37:56;100102.72;;;35.34;37.58
56604;BME280;42486;47.478;19.036;2023-07-16T13:40:58;100107.31;;;35.38;37.57
56604;BME280;42486;47.478;19.036;2023-07-16T13:44:01;100095.28;;;35.05;37.94
56604;BME280;42486;47.478;19.036;2023-07-16T13:47:22;100089.31;;;35.08;39.63
56604;BME280;42486;47.478;19.036;2023-07-16T13:50:32;100092.75;;;35.24;37.96
56604;BME280;42486;47.478;19.036;2023-07-16T13:53:37;100092.69;;;35.29;39.01
56604;BME280;42486;47.478;19.036;2023-07-16T14:00:02;100087.06;;;35.55;37.23
56604;BME280;42486;47.478;19.036;2023-07-16T14:03:08;100085.81;;;35.76;37.00
56604;BME280;42486;47.478;19.036;2023-07-16T14:06:10;100087.72;;;35.76;37.02
56604;BME280;42486;47.478;19.036;2023-07-16T14:09:13;100090.31;;;35.57;36.60
56604;BME280;42486;47.478;19.036;2023-07-16T14:12:19;100084.72;;;35.43;38.01
56604;BME280;42486;47.478;19.036;2023-07-16T14:15:21;100082.41;;;35.60;36.50
56604;BME280;42486;47.478;19.036;2023-07-16T14:18:23;100071.28;;;35.57;36.28
56604;BME280;42486;47.478;19.036;2023-07-16T14:21:26;100079.31;;;35.43;38.43
56604;BME280;42486;47.478;19.036;2023-07-16T14:24:28;100078.84;;;35.31;37.25
56604;BME280;42486;47.478;19.036;2023-07-16T14:27:31;100076.12;;;35.31;38.02
56604;BME280;42486;47.478;19.036;2023-07-16T14:30:35;100078.31;;;35.28;38.26
56604;BME280;42486;47.478;19.036;2023-07-16T14:33:39;100070.03;;;35.44;37.51
56604;BME280;42486;47.478;19.036;2023-07-16T14:36:41;100069.31;;;35.33;37.48
56604;BME280;42486;47.478;19.036;2023-07-16T14:39:43;100076.22;;;35.20;37.55
56604;BME280;42486;47.478;19.036;2023-07-16T14:42:46;100062.41;;;35.17;39.10
56604;BME280;42486;47.478;19.036;2023-07-16T14:45:49;100068.25;;;35.29;37.76
56604;BME280;42486;47.478;19.036;2023-07-16T14:48:52;100061.31;;;35.13;38.76
56604;BME280;42486;47.478;19.036;2023-07-16T14:51:57;100061.37;;;35.02;38.33
56604;BME280;42486;47.478;19.036;2023-07-16T14:55:00;100061.09;;;35.04;37.99
56604;BME280;42486;47.478;19.036;2023-07-16T14:58:05;100052.22;;;34.93;37.86
56604;BME280;42486;47.478;19.036;2023-07-16T15:01:11;100049.91;;;34.76;39.77
56604;BME280;42486;47.478;19.036;2023-07-16T15:04:18;100044.37;;;34.86;39.02
56604;BME280;42486;47.478;19.036;2023-07-16T15:07:22;100048.25;;;34.75;39.00
56604;BME280;42486;47.478;19.036;2023-07-16T15:10:25;100046.38;;;34.71;38.63
56604;BME280;42486;47.478;19.036;2023-07-16T15:13:27;100040.87;;;34.81;39.85
56604;BME280;42486;47.478;19.036;2023-07-16T15:16:30;100040.84;;;34.86;40.96
56604;BME280;42486;47.478;19.036;2023-07-16T15:19:34;100043.94;;;34.74;38.57
56604;BME280;42486;47.478;19.036;2023-07-16T15:22:37;100049.06;;;34.76;38.26
56604;BME280;42486;47.478;19.036;2023-07-16T15:25:41;100045.56;;;34.70;39.13
56604;BME280;42486;47.478;19.036;2023-07-16T15:28:46;100051.88;;;34.55;39.22
56604;BME280;42486;47.478;19.036;2023-07-16T15:31:49;100054.94;;;34.38;40.24
56604;BME280;42486;47.478;19.036;2023-07-16T15:34:51;100046.31;;;34.31;40.50
56604;BME280;42486;47.478;19.036;2023-07-16T15:37:54;100044.59;;;34.46;40.92
56604;BME280;42486;47.478;19.036;2023-07-16T15:40:59;100046.38;;;34.16;41.87
56604;BME280;42486;47.478;19.036;2023-07-16T15:44:02;100045.56;;;34.10;40.77
56604;BME280;42486;47.478;19.036;2023-07-16T15:47:06;100043.69;;;34.06;40.88
56604;BME280;42486;47.478;19.036;2023-07-16T15:50:08;100042.34;;;33.83;41.62
56604;BME280;42486;47.478;19.036;2023-07-16T15:53:12;100044.78;;;33.94;42.10
56604;BME280;42486;47.478;19.036;2023-07-16T15:56:20;100040.41;;;33.98;42.12
56604;BME280;42486;47.478;19.036;2023-07-16T15:59:23;100044.78;;;33.99;41.53
56604;BME280;42486;47.478;19.036;2023-07-16T16:02:25;100040.19;;;33.90;41.53
56604;BME280;42486;47.478;19.036;2023-07-16T16:05:31;100042.88;;;33.90;41.31
56604;BME280;42486;47.478;19.036;2023-07-16T16:08:34;100041.88;;;33.45;42.58
56604;BME280;42486;47.478;19.036;2023-07-16T16:11:40;100037.28;;;33.30;42.89
56604;BME280;42486;47.478;19.036;2023-07-16T16:14:42;100036.19;;;33.36;42.71
56604;BME280;42486;47.478;19.036;2023-07-16T16:17:45;100042.16;;;33.43;43.45
56604;BME280;42486;47.478;19.036;2023-07-16T16:20:47;100048.09;;;33.40;43.98
56604;BME280;42486;47.478;19.036;2023-07-16T16:23:49;100044.03;;;33.38;45.04
56604;BME280;42486;47.478;19.036;2023-07-16T16:26:51;100042.69;;;33.20;44.71
56604;BME280;42486;47.478;19.036;2023-07-16T16:29:54;100041.34;;;33.22;45.00
56604;BME280;42486;47.478;19.036;2023-07-16T16:32:57;100044.59;;;33.09;45.68
56604;BME280;42486;47.478;19.036;2023-07-16T16:36:08;100045.94;;;33.01;46.15
56604;BME280;42486;47.478;19.036;2023-07-16T16:39:11;100046.44;;;32.93;45.97
56604;BME280;42486;47.478;19.036;2023-07-16T16:42:13;100049.38;;;32.86;46.28
56604;BME280;42486;47.478;19.036;2023-07-16T16:45:16;100052.91;;;32.77;46.44
56604;BME280;42486;47.478;19.036;2023-07-16T16:48:19;100056.38;;;32.62;47.69
56604;BME280;42486;47.478;19.036;2023-07-16T16:51:21;100057.75;;;32.64;48.04
56604;BME280;42486;47.478;19.036;2023-07-16T16:54:23;100055.56;;;32.56;49.00
56604;BME280;42486;47.478;19.036;2023-07-16T16:57:34;100048.50;;;32.50;48.47
56604;BME280;42486;47.478;19.036;2023-07-16T17:00:36;100048.72;;;32.43;48.69
56604;BME280;42486;47.478;19.036;2023-07-16T17:03:38;100048.72;;;32.43;49.24
56604;BME280;42486;47.478;19.036;2023-07-16T17:06:44;100054.91;;;32.39;48.71
56604;BME280;42486;47.478;19.036;2023-07-16T17:09:47;100050.28;;;32.24;48.57
56604;BME280;42486;47.478;19.036;2023-07-16T17:12:55;100048.34;;;32.19;49.09
56604;BME280;42486;47.478;19.036;2023-07-16T17:16:01;100052.41;;;32.22;49.79
56604;BME280;42486;47.478;19.036;2023-07-16T17:19:06;100053.72;;;32.09;50.34
56604;BME280;42486;47.478;19.036;2023-07-16T17:22:09;100053.97;;;32.02;50.79
56604;BME280;42486;47.478;19.036;2023-07-16T17:25:21;100058.13;;;31.83;51.20
56604;BME280;42486;47.478;19.036;2023-07-16T17:28:24;100064.81;;;31.70;52.22
56604;BME280;42486;47.478;19.036;2023-07-16T17:31:26;100061.69;;;31.51;52.86
56604;BME280;42486;47.478;19.036;2023-07-16T17:34:29;100063.00;;;31.44;53.28
56604;BME280;42486;47.478;19.036;2023-07-16T17:37:35;100058.53;;;31.32;52.45
56604;BME280;42486;47.478;19.036;2023-07-16T17:40:39;100058.88;;;31.36;52.99
56604;BME280;42486;47.478;19.036;2023-07-16T17:43:42;100056.63;;;31.28;53.11
56604;BME280;42486;47.478;19.036;2023-07-16T17:46:47;100053.66;;;31.29;52.83
56604;BME280;42486;47.478;19.036;2023-07-16T17:49:51;100054.03;;;31.11;54.07
56604;BME280;42486;47.478;19.036;2023-07-16T17:52:55;100054.72;;;30.96;54.44
56604;BME280;42486;47.478;19.036;2023-07-16T17:56:07;100064.16;;;30.93;55.15
56604;BME280;42486;47.478;19.036;2023-07-16T17:59:12;100059.12;;;30.80;56.04
56604;BME280;42486;47.478;19.036;2023-07-16T18:02:15;100059.25;;;30.68;56.29
56604;BME280;42486;47.478;19.036;2023-07-16T18:05:19;100066.25;;;30.64;56.46
56604;BME280;42486;47.478;19.036;2023-07-16T18:08:22;100065.16;;;30.65;55.24
56604;BME280;42486;47.478;19.036;2023-07-16T18:11:30;100068.88;;;30.59;55.90
56604;BME280;42486;47.478;19.036;2023-07-16T18:14:37;100062.28;;;30.50;55.94
56604;BME280;42486;47.478;19.036;2023-07-16T18:17:40;100071.37;;;30.44;56.61
56604;BME280;42486;47.478;19.036;2023-07-16T18:20:44;100072.25;;;30.27;58.73
56604;BME280;42486;47.478;19.036;2023-07-16T18:23:49;100066.41;;;30.14;58.86
56604;BME280;42486;47.478;19.036;2023-07-16T18:26:52;100069.44;;;30.00;59.76
56604;BME280;42486;47.478;19.036;2023-07-16T18:30:03;100065.47;;;29.86;60.90
56604;BME280;42486;47.478;19.036;2023-07-16T18:33:08;100069.25;;;29.68;61.94
56604;BME280;42486;47.478;19.036;2023-07-16T18:36:14;100070.03;;;29.52;62.74
56604;BME280;42486;47.478;19.036;2023-07-16T18:39:17;100083.25;;;29.36;63.68
56604;BME280;42486;47.478;19.036;2023-07-16T18:42:23;100084.87;;;29.21;64.62
56604;BME280;42486;47.478;19.036;2023-07-16T18:45:31;100087.38;;;29.10;65.64
56604;BME280;42486;47.478;19.036;2023-07-16T18:48:34;100091.63;;;28.94;66.67
56604;BME280;42486;47.478;19.036;2023-07-16T18:51:37;100096.00;;;28.84;68.30
56604;BME280;42486;47.478;19.036;2023-07-16T18:54:50;100103.06;;;28.73;69.28
56604;BME280;42486;47.478;19.036;2023-07-16T18:57:55;100098.75;;;28.60;69.25
56604;BME280;42486;47.478;19.036;2023-07-16T19:01:00;100105.53;;;28.51;69.63
56604;BME280;42486;47.478;19.036;2023-07-16T19:04:07;100108.00;;;28.41;70.79
56604;BME280;42486;47.478;19.036;2023-07-16T19:07:09;100108.59;;;28.31;70.10
56604;BME280;42486;47.478;19.036;2023-07-16T19:10:12;100115.75;;;28.25;71.81
56604;BME280;42486;47.478;19.036;2023-07-16T19:13:18;100116.31;;;28.16;72.36
56604;BME280;42486;47.478;19.036;2023-07-16T19:16:23;100114.34;;;28.11;72.37
56604;BME280;42486;47.478;19.036;2023-07-16T19:19:26;100112.84;;;28.03;72.49
56604;BME280;42486;47.478;19.036;2023-07-16T19:22:30;100109.44;;;27.96;73.20
56604;BME280;42486;47.478;19.036;2023-07-16T19:25:38;100121.13;;;27.90;74.19
56604;BME280;42486;47.478;19.036;2023-07-16T19:28:45;100128.69;;;27.81;75.71
56604;BME280;42486;47.478;19.036;2023-07-16T19:31:53;100128.78;;;27.75;76.03
56604;BME280;42486;47.478;19.036;2023-07-16T19:34:56;100124.78;;;27.65;76.88
56604;BME280;42486;47.478;19.036;2023-07-16T19:38:03;100123.38;;;27.63;76.38
56604;BME280;42486;47.478;19.036;2023-07-16T19:41:10;100120.56;;;27.58;77.45
56604;BME280;42486;47.478;19.036;2023-07-16T19:44:26;100128.63;;;27.58;77.36
56604;BME280;42486;47.478;19.036;2023-07-16T19:47:31;100131.75;;;27.55;77.80
56604;BME280;42486;47.478;19.036;2023-07-16T19:50:41;100138.41;;;27.52;78.17
56604;BME280;42486;47.478;19.036;2023-07-16T19:53:50;100133.75;;;27.48;78.39
56604;BME280;42486;47.478;19.036;2023-07-16T19:56:56;100135.25;;;27.43;79.47
56604;BME280;42486;47.478;19.036;2023-07-16T19:59:59;100143.16;;;27.38;79.00
56604;BME280;42486;47.478;19.036;2023-07-16T20:03:04;100140.12;;;27.35;79.26
56604;BME280;42486;47.478;19.036;2023-07-16T20:06:08;100140.81;;;27.30;77.59
56604;BME280;42486;47.478;19.036;2023-07-16T20:09:10;100149.00;;;27.35;76.01
56604;BME280;42486;47.478;19.036;2023-07-16T20:12:14;100142.13;;;27.39;75.47
56604;BME280;42486;47.478;19.036;2023-07-16T20:15:24;100144.34;;;27.42;75.14
56604;BME280;42486;47.478;19.036;2023-07-16T20:18:29;100147.25;;;27.41;75.98
56604;BME280;42486;47.478;19.036;2023-07-16T20:21:39;100140.94;;;27.35;77.14
56604;BME280;42486;47.478;19.036;2023-07-16T20:24:41;100140.22;;;27.28;77.29
56604;BME280;42486;47.478;19.036;2023-07-16T20:27:55;100135.16;;;27.20;76.72
56604;BME280;42486;47.478;19.036;2023-07-16T20:30:57;100131.06;;;27.17;76.34
56604;BME280;42486;47.478;19.036;2023-07-16T20:34:03;100134.56;;;27.18;76.65
56604;BME280;42486;47.478;19.036;2023-07-16T20:37:15;100135.00;;;27.15;77.04
56604;BME280;42486;47.478;19.036;2023-07-16T20:40:20;100130.09;;;27.12;77.32
56604;BME280;42486;47.478;19.036;2023-07-16T20:43:24;100123.62;;;27.01;78.22
56604;BME280;42486;47.478;19.036;2023-07-16T20:46:27;100125.34;;;26.95;78.81
56604;BME280;42486;47.478;19.036;2023-07-16T20:49:30;100130.22;;;26.87;79.33
56604;BME280;42486;47.478;19.036;2023-07-16T20:52:41;100126.72;;;26.86;78.58
56604;BME280;42486;47.478;19.036;2023-07-16T20:55:49;100131.72;;;26.83;78.37
56604;BME280;42486;47.478;19.036;2023-07-16T20:58:51;100125.16;;;26.78;80.18
56604;BME280;42486;47.478;19.036;2023-07-16T21:01:54;100121.87;;;26.76;79.46
56604;BME280;42486;47.478;19.036;2023-07-16T21:04:58;100126.28;;;26.71;80.31
56604;BME280;42486;47.478;19.036;2023-07-16T21:08:03;100129.19;;;26.69;78.88
56604;BME280;42486;47.478;19.036;2023-07-16T21:11:14;100123.06;;;26.62;79.53
56604;BME280;42486;47.478;19.036;2023-07-16T21:14:21;100127.41;;;26.63;79.40
56604;BME280;42486;47.478;19.036;2023-07-16T21:17:30;100128.87;;;26.59;79.80
56604;BME280;42486;47.478;19.036;2023-07-16T21:20:45;100125.84;;;26.55;80.26
56604;BME280;42486;47.478;19.036;2023-07-16T21:23:49;100127.53;;;26.50;80.71
56604;BME280;42486;47.478;19.036;2023-07-16T21:26:51;100126.31;;;26.46;81.12
56604;BME280;42486;47.478;19.036;2023-07-16T21:29:57;100134.00;;;26.42;81.50
56604;BME280;42486;47.478;19.036;2023-07-16T21:33:17;100130.50;;;26.42;81.95
56604;BME280;42486;47.478;19.036;2023-07-16T21:36:21;100122.53;;;26.35;82.67
56604;BME280;42486;47.478;19.036;2023-07-16T21:39:25;100128.34;;;26.32;83.56
56604;BME280;42486;47.478;19.036;2023-07-16T21:42:27;100128.78;;;26.29;82.36
56604;BME280;42486;47.478;19.036;2023-07-16T21:45:33;100126.91;;;26.29;82.35
56604;BME280;42486;47.478;19.036;2023-07-16T21:48:44;100131.47;;;26.29;82.26
56604;BME280;42486;47.478;19.036;2023-07-16T21:51:50;100128.78;;;26.29;82.05
56604;BME280;42486;47.478;19.036;2023-07-16T21:54:54;100134.59;;;26.26;82.21
56604;BME280;42486;47.478;19.036;2023-07-16T21:58:01;100143.78;;;26.30;81.87
56604;BME280;42486;47.478;19.036;2023-07-16T22:01:09;100141.97;;;26.30;81.70
56604;BME280;42486;47.478;19.036;2023-07-16T22:04:12;100143.59;;;26.31;82.10
56604;BME280;42486;47.478;19.036;2023-07-16T22:07:20;100131.00;;;26.32;82.42
56604;BME280;42486;47.478;19.036;2023-07-16T22:10:23;100145.13;;;26.21;82.91
56604;BME280;42486;47.478;19.036;2023-07-16T22:13:31;100140.66;;;26.14;82.88
56604;BME280;42486;47.478;19.036;2023-07-16T22:16:39;100143.13;;;26.16;83.40
56604;BME280;42486;47.478;19.036;2023-07-16T22:19:53;100152.56;;;26.19;83.20
56604;BME280;42486;47.478;19.036;2023-07-16T22:23:02;100151.59;;;26.13;83.31
56604;BME280;42486;47.478;19.036;2023-07-16T22:26:12;100154.75;;;26.03;83.37
56604;BME280;42486;47.478;19.036;2023-07-16T22:29:17;100152.16;;;25.97;83.54
56604;BME280;42486;47.478;19.036;2023-07-16T22:32:24;100151.09;;;25.98;83.89
56604;BME280;42486;47.478;19.036;2023-07-16T22:35:31;100154.88;;;25.90;84.21
56604;BME280;42486;47.478;19.036;2023-07-16T22:38:36;100161.09;;;25.84;85.33
56604;BME280;42486;47.478;19.036;2023-07-16T22:41:44;100166.50;;;25.77;85.81